createdAt,value
2023-02-02T00:00:39.059Z,5.50
2023-02-02T00:05:53.288Z,5.49
2023-02-02T00:10:54.968Z,5.47
2023-02-02T00:15:56.776Z,5.52
2023-02-02T00:20:58.713Z,5.55
2023-02-02T00:26:00.636Z,5.54
2023-02-02T00:31:02.451Z,5.63
2023-02-02T00:36:05.024Z,5.57
2023-02-02T00:41:07.288Z,5.60
2023-02-02T00:46:18.898Z,5.54
2023-02-02T00:51:21.104Z,5.51
2023-02-02T00:56:23.077Z,5.48
2023-02-02T01:01:25.998Z,5.49
2023-02-02T01:06:27.762Z,5.54
2023-02-02T01:11:30.820Z,5.50
2023-02-02T01:16:32.757Z,5.47
2023-02-02T01:21:35.893Z,5.41
2023-02-02T01:26:37.678Z,5.34
2023-02-02T01:31:39.692Z,5.17
2023-02-02T01:36:41.362Z,5.12
2023-02-02T01:41:43.147Z,5.19
2023-02-02T01:46:44.864Z,5.19
2023-02-02T01:51:50.419Z,5.04
2023-02-02T01:57:00.657Z,5.04
2023-02-02T02:02:02.986Z,5.00
2023-02-02T02:07:07.195Z,4.97
2023-02-02T02:12:15.606Z,5.00
2023-02-02T02:17:25.189Z,4.98
2023-02-02T02:23:14.878Z,4.85
2023-02-02T02:28:42.222Z,4.75
2023-02-02T02:33:59.983Z,4.82
2023-02-02T02:39:15.885Z,4.92
2023-02-02T02:44:19.802Z,4.92
2023-02-02T02:49:21.531Z,4.86
2023-02-02T02:54:45.627Z,4.90
2023-02-02T02:59:54.163Z,4.91
2023-02-02T03:05:37.344Z,4.90
2023-02-02T03:10:42.573Z,4.89
2023-02-02T03:15:45.269Z,4.89
2023-02-02T03:20:47.153Z,4.92
2023-02-02T03:25:49.061Z,4.92
2023-02-02T03:30:52.014Z,4.90
2023-02-02T03:35:54.076Z,4.86
2023-02-02T03:40:56.015Z,4.80
2023-02-02T03:46:01.435Z,4.87
2023-02-02T03:51:14.471Z,4.87
2023-02-02T03:56:16.353Z,4.86
2023-02-02T04:01:18.137Z,4.85
2023-02-02T04:06:20.573Z,4.86
2023-02-02T04:11:22.295Z,4.84
2023-02-02T04:16:24.230Z,4.83
2023-02-02T04:21:26.081Z,4.73
2023-02-02T04:26:28.468Z,4.69
2023-02-02T04:31:30.413Z,4.66
2023-02-02T04:36:32.114Z,4.66
2023-02-02T04:41:33.871Z,4.65
2023-02-02T04:46:35.500Z,4.55
2023-02-02T04:51:38.618Z,4.55
2023-02-02T04:56:40.263Z,4.54
2023-02-02T05:01:41.959Z,4.55
2023-02-02T05:06:44.341Z,4.56
2023-02-02T05:11:45.997Z,4.60
2023-02-02T05:16:49.978Z,4.60
2023-02-02T05:21:51.864Z,4.63
2023-02-02T05:26:58.353Z,4.66
2023-02-02T05:32:00.969Z,4.70
2023-02-02T05:37:02.787Z,4.77
2023-02-02T05:42:04.471Z,4.79
2023-02-02T05:47:06.123Z,4.82
2023-02-02T05:52:09.181Z,4.83
2023-02-02T05:57:10.869Z,4.85
2023-02-02T06:02:12.828Z,4.87
2023-02-02T06:07:14.493Z,4.90
2023-02-02T06:12:16.389Z,4.93
2023-02-02T06:17:17.983Z,4.95
2023-02-02T06:22:19.728Z,5.03
2023-02-02T06:27:21.692Z,5.07
2023-02-02T06:32:23.444Z,5.12
2023-02-02T06:37:25.160Z,5.18
2023-02-02T06:42:27.017Z,5.22
2023-02-02T06:47:28.738Z,5.26
2023-02-02T06:52:30.667Z,5.28
2023-02-02T06:57:32.444Z,5.30
2023-02-02T07:02:34.211Z,5.31
2023-02-02T07:07:35.846Z,5.33
2023-02-02T07:12:38.329Z,5.32
2023-02-02T07:17:40.297Z,5.35
2023-02-02T07:22:42.027Z,5.32
2023-02-02T07:27:43.676Z,5.36
2023-02-02T07:32:49.553Z,5.35
2023-02-02T07:37:55.378Z,5.35
2023-02-02T07:43:00.549Z,5.35
2023-02-02T07:48:03.290Z,5.35
2023-02-02T07:53:04.924Z,5.37
2023-02-02T07:58:07.785Z,5.42
2023-02-02T08:03:12.605Z,5.48
2023-02-02T08:08:14.367Z,5.50
2023-02-02T08:13:16.249Z,5.52
2023-02-02T08:18:18.088Z,5.52
2023-02-02T08:23:23.565Z,5.54
2023-02-02T08:28:25.453Z,5.63
2023-02-02T08:33:27.152Z,5.67
2023-02-02T08:38:29.125Z,5.70
2023-02-02T08:43:30.981Z,5.75
2023-02-02T08:48:34.570Z,5.79
2023-02-02T08:53:36.301Z,5.82
2023-02-02T08:58:37.989Z,5.83
2023-02-02T09:03:40.504Z,5.87
2023-02-02T09:08:42.706Z,5.93
2023-02-02T09:13:47.492Z,5.93
2023-02-02T09:18:49.389Z,5.98
2023-02-02T09:23:53.760Z,6.04
2023-02-02T09:29:02.619Z,6.06
2023-02-02T09:34:10.218Z,6.06
2023-02-02T09:39:13.046Z,6.07
2023-02-02T09:44:30.354Z,6.01
2023-02-02T09:49:49.778Z,6.02
2023-02-02T09:54:57.732Z,5.91
2023-02-02T09:59:59.428Z,5.87
2023-02-02T10:05:08.993Z,5.88
2023-02-02T10:10:18.097Z,5.86
2023-02-02T10:15:38.382Z,5.87
2023-02-02T10:21:03.501Z,5.85
2023-02-02T10:26:18.391Z,5.89
2023-02-02T10:31:35.482Z,5.91
2023-02-02T10:37:28.360Z,5.93
2023-02-02T10:42:35.551Z,5.99
2023-02-02T10:47:38.548Z,5.99
2023-02-02T10:52:54.276Z,6.03
2023-02-02T10:58:11.209Z,6.04
2023-02-02T11:03:15.175Z,6.06
2023-02-02T11:08:45.452Z,6.09
2023-02-02T11:13:58.225Z,6.13
2023-02-02T11:19:00.791Z,6.10
2023-02-02T11:24:05.803Z,6.10
2023-02-02T11:29:14.766Z,6.06
2023-02-02T11:34:23.506Z,6.06
2023-02-02T11:39:26.267Z,5.98
2023-02-02T11:44:30.219Z,5.97
2023-02-02T11:49:42.549Z,5.96
2023-02-02T11:54:49.047Z,5.95
2023-02-02T12:00:12.051Z,5.95
2023-02-02T12:05:23.417Z,5.97
2023-02-02T12:10:32.416Z,5.95
2023-02-02T12:16:15.853Z,5.91
2023-02-02T12:21:35.679Z,5.92
2023-02-02T12:26:41.403Z,5.99
2023-02-02T12:31:57.698Z,5.98
2023-02-02T12:37:17.560Z,5.96
2023-02-02T12:42:45.946Z,5.96
2023-02-02T12:48:10.356Z,5.97
2023-02-02T12:53:42.394Z,5.97
2023-02-02T12:58:53.893Z,5.96
2023-02-02T13:04:35.310Z,5.95
2023-02-02T13:09:49.831Z,5.96
2023-02-02T13:14:54.827Z,5.98
2023-02-02T13:20:03.410Z,5.99
2023-02-02T13:25:10.462Z,6.00
2023-02-02T13:30:32.945Z,5.95
2023-02-02T13:35:42.819Z,5.93
2023-02-02T13:40:44.925Z,5.94
2023-02-02T13:46:24.224Z,5.94
2023-02-02T13:51:34.607Z,5.94
2023-02-02T13:56:53.285Z,5.94
2023-02-02T14:01:58.145Z,5.96
2023-02-02T14:07:06.131Z,5.96
2023-02-02T14:12:11.226Z,5.93
2023-02-02T14:17:17.293Z,5.93
2023-02-02T14:22:37.692Z,5.93
2023-02-02T14:27:53.827Z,5.92
2023-02-02T14:33:21.215Z,5.92
2023-02-02T14:38:44.329Z,5.90
2023-02-02T14:43:51.850Z,5.88
2023-02-02T14:48:53.633Z,5.87
2023-02-02T14:54:00.768Z,5.85
2023-02-02T14:59:04.298Z,5.86
2023-02-02T15:04:21.497Z,5.87
2023-02-02T15:09:23.427Z,5.90
2023-02-02T15:14:53.239Z,5.90
2023-02-02T15:20:06.894Z,5.91
2023-02-02T15:25:40.890Z,5.94
2023-02-02T15:30:45.380Z,5.92
2023-02-02T15:35:48.278Z,5.92
2023-02-02T15:40:50.027Z,5.91
2023-02-02T15:46:02.532Z,5.89
2023-02-02T15:51:13.899Z,5.93
2023-02-02T15:56:20.950Z,5.90
2023-02-02T16:01:24.714Z,5.89
2023-02-02T16:06:26.616Z,5.91
2023-02-02T16:11:29.654Z,5.94
2023-02-02T16:16:32.975Z,5.92
2023-02-02T16:21:41.542Z,5.91
2023-02-02T16:26:43.516Z,5.90
2023-02-02T16:31:47.770Z,5.95
2023-02-02T16:37:12.351Z,5.90
2023-02-02T16:42:29.311Z,5.88
2023-02-02T16:47:34.067Z,5.89
2023-02-02T16:52:50.593Z,5.85
2023-02-02T16:57:52.484Z,5.84
2023-02-02T17:03:08.980Z,5.88
2023-02-02T17:08:11.371Z,5.85
2023-02-02T17:13:42.903Z,5.90
2023-02-02T17:18:44.826Z,5.91
2023-02-02T17:23:47.091Z,5.94
2023-02-02T17:28:50.749Z,5.95
2023-02-02T17:33:52.366Z,5.98
2023-02-02T17:38:54.148Z,5.98
2023-02-02T17:43:55.876Z,5.99
2023-02-02T17:48:58.285Z,6.03
2023-02-02T17:54:00.396Z,6.00
2023-02-02T17:59:02.118Z,6.04
2023-02-02T18:04:05.060Z,6.03
2023-02-02T18:09:07.099Z,6.02
2023-02-02T18:14:09.418Z,6.03
2023-02-02T18:19:11.182Z,5.99
2023-02-02T18:24:15.411Z,5.99
2023-02-02T18:29:17.079Z,5.98
2023-02-02T18:34:18.743Z,5.96
2023-02-02T18:39:20.423Z,5.98
2023-02-02T18:44:23.855Z,6.00
2023-02-02T18:49:25.619Z,5.97
2023-02-02T18:54:27.336Z,5.97
2023-02-02T18:59:29.672Z,6.00
2023-02-02T19:04:31.472Z,5.98
2023-02-02T19:09:34.728Z,5.98
2023-02-02T19:14:38.539Z,5.97
2023-02-02T19:19:42.909Z,5.99
2023-02-02T19:24:44.586Z,5.98
2023-02-02T19:29:48.942Z,5.97
2023-02-02T19:35:01.467Z,5.97
2023-02-02T19:40:09.343Z,5.95
2023-02-02T19:45:21.847Z,5.94
2023-02-02T19:50:27.360Z,5.92
2023-02-02T19:55:35.831Z,5.97
2023-02-02T20:00:38.857Z,5.99
2023-02-02T20:05:44.606Z,5.98
2023-02-02T20:10:46.556Z,6.00
2023-02-02T20:15:54.655Z,6.00
2023-02-02T20:20:59.221Z,5.98
2023-02-02T20:26:03.769Z,6.02
2023-02-02T20:31:05.987Z,6.02
2023-02-02T20:36:34.340Z,6.01
2023-02-02T20:41:36.037Z,6.03
2023-02-02T20:46:37.714Z,6.01
2023-02-02T20:51:40.941Z,6.02
2023-02-02T20:56:43.017Z,6.03
2023-02-02T21:01:44.761Z,6.04
2023-02-02T21:06:48.713Z,6.02
2023-02-02T21:11:50.491Z,6.07
2023-02-02T21:16:57.409Z,6.06
2023-02-02T21:22:07.183Z,6.05
2023-02-02T21:27:09.246Z,6.05
2023-02-02T21:32:11.112Z,6.05
2023-02-02T21:37:15.223Z,6.09
2023-02-02T21:42:25.124Z,6.09
2023-02-02T21:47:35.916Z,6.07
2023-02-02T21:52:37.907Z,6.08
2023-02-02T21:57:42.067Z,6.07
2023-02-02T22:02:48.381Z,6.07
2023-02-02T22:07:50.941Z,6.03
2023-02-02T22:12:52.826Z,6.04
2023-02-02T22:17:54.481Z,6.04
2023-02-02T22:22:56.154Z,6.00
2023-02-02T22:28:00.121Z,5.99
2023-02-02T22:33:02.124Z,5.95
2023-02-02T22:38:04.398Z,5.96
2023-02-02T22:43:07.782Z,5.93
2023-02-02T22:48:09.751Z,5.90
2023-02-02T22:53:13.814Z,5.85
2023-02-02T22:58:15.768Z,5.81
2023-02-02T23:03:17.820Z,5.85
2023-02-02T23:08:19.505Z,5.84
2023-02-02T23:13:21.286Z,5.84
2023-02-02T23:18:23.045Z,5.82
2023-02-02T23:23:24.892Z,5.82
2023-02-02T23:28:26.691Z,5.80
2023-02-02T23:33:28.401Z,5.77
2023-02-02T23:38:30.158Z,5.81
2023-02-02T23:43:31.832Z,5.82
2023-02-02T23:48:35.113Z,5.77
2023-02-02T23:53:37.218Z,5.80
2023-02-02T23:58:38.844Z,5.82
